createdAt,value
2022-11-25T00:00:22.349Z,1.67
2022-11-25T00:01:27.535Z,1.64
2022-11-25T00:02:30.357Z,1.61
2022-11-25T00:03:35.418Z,1.57
2022-11-25T00:04:39.388Z,1.54
2022-11-25T00:05:43.145Z,1.54
2022-11-25T00:06:45.906Z,1.54
2022-11-25T00:07:49.785Z,1.55
2022-11-25T00:08:54.852Z,1.56
2022-11-25T00:09:58.592Z,1.55
2022-11-25T00:11:01.387Z,1.57
2022-11-25T00:12:05.432Z,1.57
2022-11-25T00:13:09.637Z,1.57
2022-11-25T00:14:15.016Z,1.57
2022-11-25T00:15:17.739Z,1.58
2022-11-25T00:16:23.350Z,1.58
2022-11-25T00:17:26.129Z,1.58
2022-11-25T00:18:29.802Z,1.58
2022-11-25T00:19:33.888Z,1.58
2022-11-25T00:20:38.588Z,1.58
2022-11-25T00:21:42.821Z,1.57
2022-11-25T00:22:45.632Z,1.56
2022-11-25T00:23:53.456Z,1.55
2022-11-25T00:24:56.110Z,1.54
2022-11-25T00:26:00.079Z,1.53
2022-11-25T00:27:05.219Z,1.54
2022-11-25T00:28:11.881Z,1.53
2022-11-25T00:29:15.600Z,1.54
2022-11-25T00:30:18.350Z,1.53
2022-11-25T00:31:23.805Z,1.54
2022-11-25T00:32:26.795Z,1.55
2022-11-25T00:33:30.690Z,1.55
2022-11-25T00:34:33.732Z,1.58
2022-11-25T00:35:37.629Z,1.57
2022-11-25T00:36:40.429Z,1.59
2022-11-25T00:37:44.183Z,1.59
2022-11-25T00:38:47.187Z,1.59
2022-11-25T00:39:51.042Z,1.60
2022-11-25T00:41:15.086Z,1.59
2022-11-25T00:42:35.839Z,1.56
2022-11-25T00:43:58.397Z,1.55
2022-11-25T00:45:02.394Z,1.54
2022-11-25T00:46:05.575Z,1.56
2022-11-25T00:47:11.308Z,1.57
2022-11-25T00:48:14.045Z,1.57
2022-11-25T00:49:18.809Z,1.59
2022-11-25T00:50:23.019Z,1.59
2022-11-25T00:51:25.758Z,1.60
2022-11-25T00:52:29.559Z,1.62
2022-11-25T00:53:32.352Z,1.62
2022-11-25T00:54:36.553Z,1.64
2022-11-25T00:55:54.180Z,1.64
2022-11-25T00:56:57.956Z,1.64
2022-11-25T00:58:00.732Z,1.64
2022-11-25T00:59:06.249Z,1.66
2022-11-25T01:00:11.736Z,1.67
2022-11-25T01:01:17.914Z,1.66
2022-11-25T01:02:20.735Z,1.66
2022-11-25T01:03:24.491Z,1.68
2022-11-25T01:04:29.461Z,1.69
2022-11-25T01:05:33.174Z,1.69
2022-11-25T01:06:38.720Z,1.70
2022-11-25T01:07:42.512Z,1.70
2022-11-25T01:08:45.317Z,1.69
2022-11-25T01:09:49.408Z,1.68
2022-11-25T01:10:59.058Z,1.68
2022-11-25T01:12:02.845Z,1.68
2022-11-25T01:13:06.574Z,1.68
2022-11-25T01:14:13.913Z,1.67
2022-11-25T01:15:16.700Z,1.69
2022-11-25T01:16:21.389Z,1.69
2022-11-25T01:17:24.140Z,1.68
2022-11-25T01:18:31.141Z,1.69
2022-11-25T01:19:38.551Z,1.69
2022-11-25T01:20:41.247Z,1.69
2022-11-25T01:21:45.151Z,1.69
2022-11-25T01:22:47.807Z,1.66
2022-11-25T01:23:52.150Z,1.65
2022-11-25T01:24:55.911Z,1.62
2022-11-25T01:26:02.205Z,1.59
2022-11-25T01:27:06.055Z,1.59
2022-11-25T01:28:08.740Z,1.58
2022-11-25T01:29:17.236Z,1.57
2022-11-25T01:30:19.988Z,1.57
2022-11-25T01:31:25.229Z,1.59
2022-11-25T01:32:28.631Z,1.59
2022-11-25T01:33:33.643Z,1.60
2022-11-25T01:34:37.856Z,1.62
2022-11-25T01:35:41.051Z,1.62
2022-11-25T01:36:45.141Z,1.62
2022-11-25T01:37:47.899Z,1.63
2022-11-25T01:38:52.762Z,1.63
2022-11-25T01:39:55.537Z,1.63
2022-11-25T01:40:59.691Z,1.63
2022-11-25T01:42:03.729Z,1.62
2022-11-25T01:43:10.711Z,1.61
2022-11-25T01:44:18.167Z,1.61
2022-11-25T01:45:35.076Z,1.61
2022-11-25T01:47:00.458Z,1.62
2022-11-25T01:48:09.565Z,1.60
2022-11-25T01:49:16.944Z,1.61
2022-11-25T01:50:22.465Z,1.61
2022-11-25T01:51:29.224Z,1.61
2022-11-25T01:52:34.846Z,1.62
2022-11-25T01:53:37.556Z,1.63
2022-11-25T01:54:45.974Z,1.62
2022-11-25T01:55:56.280Z,1.63
2022-11-25T01:57:02.756Z,1.62
2022-11-25T01:58:07.555Z,1.61
2022-11-25T01:59:11.396Z,1.62
2022-11-25T02:00:16.756Z,1.62
2022-11-25T02:01:26.319Z,1.62
2022-11-25T02:02:31.500Z,1.62
2022-11-25T02:03:39.046Z,1.65
2022-11-25T02:04:42.351Z,1.66
2022-11-25T02:05:51.049Z,1.68
2022-11-25T02:06:58.130Z,1.69
2022-11-25T02:08:02.373Z,1.71
2022-11-25T02:09:06.938Z,1.73
2022-11-25T02:10:14.103Z,1.72
2022-11-25T02:11:20.196Z,1.73
2022-11-25T02:12:24.067Z,1.75
2022-11-25T02:13:26.994Z,1.75
2022-11-25T02:14:30.824Z,1.76
2022-11-25T02:15:35.563Z,1.77
2022-11-25T02:16:41.200Z,1.78
2022-11-25T02:17:44.944Z,1.79
2022-11-25T02:18:48.776Z,1.79
2022-11-25T02:19:59.758Z,1.79
2022-11-25T02:21:05.551Z,1.79
2022-11-25T02:22:11.218Z,1.78
2022-11-25T02:23:25.908Z,1.78
2022-11-25T02:24:35.509Z,1.77
2022-11-25T02:25:42.086Z,1.76
2022-11-25T02:26:49.136Z,1.75
2022-11-25T02:27:55.884Z,1.75
2022-11-25T02:28:59.666Z,1.73
2022-11-25T02:30:02.464Z,1.75
2022-11-25T02:31:07.984Z,1.75
2022-11-25T02:32:12.445Z,1.76
2022-11-25T02:33:17.530Z,1.77
2022-11-25T02:34:20.305Z,1.76
2022-11-25T02:35:36.410Z,1.78
2022-11-25T02:36:39.158Z,1.79
2022-11-25T02:37:43.749Z,1.77
2022-11-25T02:38:48.726Z,1.77
2022-11-25T02:39:53.598Z,1.78
2022-11-25T02:41:01.605Z,1.79
2022-11-25T02:42:05.837Z,1.77
2022-11-25T02:43:09.393Z,1.77
2022-11-25T02:44:13.206Z,1.75
2022-11-25T02:45:18.607Z,1.75
2022-11-25T02:46:24.681Z,1.72
2022-11-25T02:47:27.499Z,1.71
2022-11-25T02:49:06.834Z,1.72
2022-11-25T02:49:56.340Z,1.70
2022-11-25T02:51:00.276Z,1.71
2022-11-25T02:52:03.078Z,1.72
2022-11-25T02:53:06.886Z,1.73
2022-11-25T02:54:09.939Z,1.73
2022-11-25T02:55:13.981Z,1.77
2022-11-25T02:56:19.570Z,1.77
2022-11-25T02:57:23.379Z,1.78
2022-11-25T02:58:26.064Z,1.80
2022-11-25T02:59:30.238Z,1.81
2022-11-25T03:00:32.996Z,1.81
2022-11-25T03:01:38.531Z,1.81
2022-11-25T03:02:43.271Z,1.81
2022-11-25T03:03:46.999Z,1.81
2022-11-25T03:04:49.828Z,1.82
2022-11-25T03:05:56.290Z,1.81
2022-11-25T03:07:00.737Z,1.82
2022-11-25T03:08:05.469Z,1.81
2022-11-25T03:09:12.440Z,1.80
2022-11-25T03:10:17.024Z,1.81
2022-11-25T03:11:21.360Z,1.80
2022-11-25T03:12:24.067Z,1.81
2022-11-25T03:13:30.128Z,1.81
2022-11-25T03:14:33.216Z,1.81
2022-11-25T03:15:37.895Z,1.81
2022-11-25T03:16:40.814Z,1.80
2022-11-25T03:17:44.799Z,1.80
2022-11-25T03:18:47.508Z,1.82
2022-11-25T03:19:52.587Z,1.80
2022-11-25T03:20:55.716Z,1.81
2022-11-25T03:22:01.370Z,1.78
2022-11-25T03:23:06.179Z,1.77
2022-11-25T03:24:08.950Z,1.77
2022-11-25T03:25:13.290Z,1.77
2022-11-25T03:26:16.608Z,1.76
2022-11-25T03:27:21.737Z,1.76
2022-11-25T03:28:24.496Z,1.78
2022-11-25T03:29:28.365Z,1.79
2022-11-25T03:30:32.909Z,1.80
2022-11-25T03:31:38.886Z,1.81
2022-11-25T03:32:45.227Z,1.82
2022-11-25T03:33:49.674Z,1.81
2022-11-25T03:34:52.470Z,1.79
2022-11-25T03:35:56.301Z,1.77
2022-11-25T03:36:59.174Z,1.75
2022-11-25T03:38:05.527Z,1.75
2022-11-25T03:39:11.681Z,1.76
2022-11-25T03:40:17.398Z,1.75
2022-11-25T03:41:20.737Z,1.76
2022-11-25T03:42:26.205Z,1.76
2022-11-25T03:43:30.799Z,1.76
2022-11-25T03:44:35.221Z,1.78
2022-11-25T03:45:39.142Z,1.79
2022-11-25T03:46:43.738Z,1.81
2022-11-25T03:47:48.819Z,1.81
2022-11-25T03:48:51.730Z,1.81
2022-11-25T03:49:55.949Z,1.82
2022-11-25T03:50:58.651Z,1.83
2022-11-25T03:52:04.609Z,1.85
2022-11-25T03:53:07.428Z,1.83
2022-11-25T03:54:12.619Z,1.83
2022-11-25T03:55:35.439Z,1.81
2022-11-25T03:56:39.646Z,1.80
2022-11-25T03:57:43.768Z,1.81
2022-11-25T03:58:48.807Z,1.82
2022-11-25T03:59:52.245Z,1.81
2022-11-25T04:00:56.128Z,1.82
2022-11-25T04:01:59.023Z,1.81
2022-11-25T04:03:02.921Z,1.80
2022-11-25T04:04:08.064Z,1.80
2022-11-25T04:05:11.817Z,1.80
2022-11-25T04:06:14.599Z,1.77
2022-11-25T04:07:18.471Z,1.76
2022-11-25T04:08:21.860Z,1.75
2022-11-25T04:09:26.398Z,1.74
2022-11-25T04:10:31.099Z,1.73
2022-11-25T04:11:54.119Z,1.74
2022-11-25T04:12:59.626Z,1.72
2022-11-25T04:14:09.951Z,1.71
2022-11-25T04:15:14.096Z,1.71
2022-11-25T04:16:20.984Z,1.72
2022-11-25T04:17:24.810Z,1.73
2022-11-25T04:18:27.868Z,1.75
2022-11-25T04:19:35.014Z,1.75
2022-11-25T04:20:39.589Z,1.76
2022-11-25T04:21:46.787Z,1.77
2022-11-25T04:22:53.267Z,1.77
2022-11-25T04:23:56.597Z,1.79
2022-11-25T04:25:00.307Z,1.81
2022-11-25T04:26:04.163Z,1.82
2022-11-25T04:27:11.878Z,1.82
2022-11-25T04:28:17.017Z,1.82
2022-11-25T04:29:20.095Z,1.85
2022-11-25T04:30:25.654Z,1.85
2022-11-25T04:31:29.332Z,1.86
2022-11-25T04:32:33.236Z,1.85
2022-11-25T04:33:36.167Z,1.83
2022-11-25T04:34:40.182Z,1.83
2022-11-25T04:35:43.960Z,1.84
2022-11-25T04:36:48.730Z,1.84
2022-11-25T04:37:52.007Z,1.83
2022-11-25T04:38:56.450Z,1.83
2022-11-25T04:39:59.393Z,1.84
2022-11-25T04:41:03.648Z,1.83
2022-11-25T04:42:31.888Z,1.84
2022-11-25T04:43:38.689Z,1.82
2022-11-25T04:45:01.363Z,1.82
2022-11-25T04:46:14.955Z,1.79
2022-11-25T04:47:21.399Z,1.79
2022-11-25T04:48:25.248Z,1.76
2022-11-25T04:49:28.000Z,1.76
2022-11-25T04:50:31.798Z,1.76
2022-11-25T04:51:43.100Z,1.76
2022-11-25T04:52:48.141Z,1.76
2022-11-25T04:53:50.973Z,1.76
2022-11-25T04:54:54.880Z,1.78
2022-11-25T04:55:58.419Z,1.79
2022-11-25T04:57:02.274Z,1.80
2022-11-25T04:58:05.167Z,1.81
2022-11-25T04:59:29.578Z,1.81
2022-11-25T05:00:33.565Z,1.81
2022-11-25T05:01:36.944Z,1.81
2022-11-25T05:02:53.893Z,1.81
2022-11-25T05:03:58.677Z,1.81
2022-11-25T05:05:04.260Z,1.82
2022-11-25T05:06:07.565Z,1.83
2022-11-25T05:07:13.232Z,1.83
2022-11-25T05:08:17.319Z,1.85
2022-11-25T05:09:21.110Z,1.83
2022-11-25T05:10:33.717Z,1.81
2022-11-25T05:11:36.567Z,1.81
2022-11-25T05:12:40.787Z,1.80
2022-11-25T05:13:48.217Z,1.78
2022-11-25T05:14:53.549Z,1.78
2022-11-25T05:16:00.035Z,1.79
2022-11-25T05:17:04.549Z,1.80
2022-11-25T05:18:07.471Z,1.83
2022-11-25T05:19:21.408Z,1.83
2022-11-25T05:20:24.675Z,1.85
2022-11-25T05:21:30.165Z,1.85
2022-11-25T05:22:34.036Z,1.87
2022-11-25T05:23:38.616Z,1.86
2022-11-25T05:24:41.480Z,1.85
2022-11-25T05:25:45.278Z,1.83
2022-11-25T05:27:22.218Z,1.80
2022-11-25T05:28:25.228Z,1.80
2022-11-25T05:29:29.557Z,1.79
2022-11-25T05:30:33.757Z,1.79
2022-11-25T05:31:37.673Z,1.79
2022-11-25T05:32:40.893Z,1.79
2022-11-25T05:33:47.360Z,1.80
2022-11-25T05:34:51.327Z,1.80
2022-11-25T05:35:56.716Z,1.81
2022-11-25T05:37:02.893Z,1.82
2022-11-25T05:38:07.267Z,1.82
2022-11-25T05:39:11.329Z,1.85
2022-11-25T05:40:33.886Z,1.83
2022-11-25T05:41:45.341Z,1.82
2022-11-25T05:42:48.171Z,1.81
2022-11-25T05:43:53.518Z,1.80
2022-11-25T05:44:56.388Z,1.81
2022-11-25T05:46:05.381Z,1.82
2022-11-25T05:47:09.340Z,1.83
2022-11-25T05:48:13.407Z,1.86
2022-11-25T05:49:19.042Z,1.88
2022-11-25T05:50:22.264Z,1.88
2022-11-25T05:51:39.897Z,1.89
2022-11-25T05:52:42.638Z,1.90
2022-11-25T05:53:46.535Z,1.91
2022-11-25T05:54:52.181Z,1.90
2022-11-25T05:56:02.939Z,1.90
2022-11-25T05:57:36.012Z,1.86
2022-11-25T05:58:42.106Z,1.85
2022-11-25T05:59:46.219Z,1.86
2022-11-25T06:01:01.108Z,1.83
2022-11-25T06:02:05.191Z,1.86
2022-11-25T06:03:08.509Z,1.86
2022-11-25T06:04:13.206Z,1.88
2022-11-25T06:05:16.146Z,1.88
2022-11-25T06:06:20.237Z,1.87
2022-11-25T06:07:23.649Z,1.87
2022-11-25T06:08:27.477Z,1.87
2022-11-25T06:09:31.308Z,1.87
2022-11-25T06:10:35.157Z,1.85
2022-11-25T06:11:39.016Z,1.88
2022-11-25T06:12:42.335Z,1.89
2022-11-25T06:13:47.154Z,1.88
2022-11-25T06:14:51.098Z,1.90
2022-11-25T06:15:54.910Z,1.91
2022-11-25T06:16:59.149Z,1.91
2022-11-25T06:18:14.351Z,1.90
2022-11-25T06:19:17.098Z,1.92
2022-11-25T06:20:20.930Z,1.93
2022-11-25T06:21:24.679Z,1.93
2022-11-25T06:22:27.348Z,1.94
2022-11-25T06:23:31.728Z,1.95
2022-11-25T06:24:35.178Z,1.94
2022-11-25T06:25:43.069Z,1.94
2022-11-25T06:26:45.727Z,1.94
2022-11-25T06:28:13.655Z,1.95
2022-11-25T06:29:13.209Z,1.94
2022-11-25T06:30:19.639Z,1.92
2022-11-25T06:31:35.257Z,1.90
2022-11-25T06:33:02.571Z,1.88
2022-11-25T06:34:09.397Z,1.88
2022-11-25T06:35:13.889Z,1.88
2022-11-25T06:36:37.879Z,1.89
2022-11-25T06:37:41.532Z,1.91
2022-11-25T06:38:45.558Z,1.93
2022-11-25T06:39:48.246Z,1.95
2022-11-25T06:40:54.104Z,1.96
2022-11-25T06:41:59.142Z,1.98
2022-11-25T06:43:02.915Z,1.98
2022-11-25T06:44:06.882Z,2.00
2022-11-25T06:45:10.507Z,1.99
2022-11-25T06:46:21.122Z,1.99
2022-11-25T06:47:27.007Z,1.99
2022-11-25T06:48:32.178Z,2.00
2022-11-25T06:49:35.247Z,2.00
2022-11-25T06:50:39.067Z,2.01
2022-11-25T06:51:41.815Z,2.03
2022-11-25T06:52:45.757Z,2.03
2022-11-25T06:53:48.600Z,2.05
2022-11-25T06:54:53.969Z,2.07
2022-11-25T06:56:04.463Z,2.08
2022-11-25T06:57:08.368Z,2.08
2022-11-25T06:58:34.540Z,2.09
2022-11-25T06:59:34.960Z,2.06
2022-11-25T07:00:37.679Z,2.05
2022-11-25T07:01:41.503Z,2.05
2022-11-25T07:02:48.322Z,2.04
2022-11-25T07:03:55.298Z,2.05
2022-11-25T07:04:57.998Z,2.06
2022-11-25T07:06:02.283Z,2.07
2022-11-25T07:07:06.461Z,2.08
2022-11-25T07:08:09.178Z,2.10
2022-11-25T07:09:12.944Z,2.14
2022-11-25T07:10:15.759Z,2.15
2022-11-25T07:11:21.208Z,2.18
2022-11-25T07:12:24.917Z,2.22
2022-11-25T07:13:27.559Z,2.24
2022-11-25T07:14:31.329Z,2.27
2022-11-25T07:15:35.068Z,2.31
2022-11-25T07:16:39.551Z,2.34
2022-11-25T07:17:43.300Z,2.37
2022-11-25T07:18:46.080Z,2.40
2022-11-25T07:19:51.197Z,2.42
2022-11-25T07:20:53.880Z,2.44
2022-11-25T07:21:57.587Z,2.45
2022-11-25T07:23:00.248Z,2.46
2022-11-25T07:24:06.408Z,2.48
2022-11-25T07:25:11.009Z,2.47
2022-11-25T07:26:16.747Z,2.47
2022-11-25T07:27:20.413Z,2.47
2022-11-25T07:28:24.190Z,2.48
2022-11-25T07:32:15.528Z,2.42
2022-11-25T07:33:18.227Z,2.41
2022-11-25T07:34:22.594Z,2.42
2022-11-25T07:35:26.679Z,2.41
2022-11-25T07:36:31.409Z,2.41
2022-11-25T07:37:34.239Z,2.41
2022-11-25T07:38:42.221Z,2.42
2022-11-25T07:39:50.031Z,2.40
2022-11-25T07:40:52.829Z,2.41
2022-11-25T07:41:56.649Z,2.41
2022-11-25T07:43:00.479Z,2.42
2022-11-25T07:44:05.786Z,2.41
2022-11-25T07:45:21.013Z,2.40
2022-11-25T07:46:31.143Z,2.39
2022-11-25T07:47:34.862Z,2.40
2022-11-25T07:48:38.808Z,2.40
2022-11-25T07:49:42.758Z,2.43
2022-11-25T07:50:47.596Z,2.46
2022-11-25T07:51:53.873Z,2.48
2022-11-25T07:52:56.568Z,2.50
2022-11-25T07:54:01.846Z,2.51
2022-11-25T07:55:05.078Z,2.52
2022-11-25T07:56:09.278Z,2.55
2022-11-25T07:57:13.106Z,2.57
2022-11-25T07:58:16.818Z,2.58
2022-11-25T07:59:22.457Z,2.61
2022-11-25T08:00:25.370Z,2.64
2022-11-25T08:01:29.607Z,2.66
2022-11-25T08:02:33.450Z,2.68
2022-11-25T08:03:37.336Z,2.72
2022-11-25T08:04:41.216Z,2.76
2022-11-25T08:05:43.881Z,2.78
2022-11-25T08:06:50.772Z,2.80
2022-11-25T08:07:53.951Z,2.83
2022-11-25T08:08:59.179Z,2.84
2022-11-25T08:10:02.993Z,2.86
2022-11-25T08:11:06.899Z,2.87
2022-11-25T08:12:10.759Z,2.88
2022-11-25T08:13:13.468Z,2.89
2022-11-25T08:14:17.589Z,2.91
2022-11-25T08:15:20.281Z,2.92
2022-11-25T08:16:26.582Z,2.94
2022-11-25T08:17:30.678Z,2.95
2022-11-25T08:18:33.924Z,2.99
2022-11-25T08:19:38.015Z,3.03
2022-11-25T08:20:41.000Z,3.07
2022-11-25T08:21:44.857Z,3.12
2022-11-25T08:22:50.363Z,3.14
2022-11-25T08:23:54.577Z,3.15
2022-11-25T08:24:57.416Z,3.17
2022-11-25T08:26:05.047Z,3.22
2022-11-25T08:27:07.881Z,3.24
2022-11-25T08:28:11.746Z,3.23
2022-11-25T08:29:16.919Z,3.22
2022-11-25T08:30:24.712Z,3.21
2022-11-25T08:31:30.598Z,3.20
2022-11-25T08:32:38.935Z,3.19
2022-11-25T08:33:42.090Z,3.19
2022-11-25T08:34:45.918Z,3.20
2022-11-25T08:35:54.551Z,3.23
2022-11-25T08:36:58.498Z,3.25
2022-11-25T08:38:03.177Z,3.26
2022-11-25T08:39:29.069Z,3.29
2022-11-25T08:40:32.604Z,3.30
2022-11-25T08:41:38.109Z,3.34
2022-11-25T08:42:40.911Z,3.36
2022-11-25T08:43:44.739Z,3.39
2022-11-25T08:44:53.352Z,3.43
2022-11-25T08:45:56.159Z,3.46
2022-11-25T08:47:00.148Z,3.50
2022-11-25T08:48:04.722Z,3.52
2022-11-25T08:49:10.267Z,3.53
2022-11-25T08:50:14.531Z,3.52
2022-11-25T08:51:20.108Z,3.52
2022-11-25T08:52:24.451Z,3.53
2022-11-25T08:53:28.632Z,3.55
2022-11-25T08:54:32.398Z,3.59
2022-11-25T08:55:37.268Z,3.62
2022-11-25T08:56:41.017Z,3.65
2022-11-25T08:57:44.700Z,3.70
2022-11-25T08:58:49.073Z,3.74
2022-11-25T08:59:52.858Z,3.78
2022-11-25T09:00:55.560Z,3.82
2022-11-25T09:01:59.628Z,3.85
2022-11-25T09:03:04.381Z,3.84
2022-11-25T09:04:08.330Z,3.85
2022-11-25T09:05:13.105Z,3.85
2022-11-25T09:06:16.950Z,3.80
2022-11-25T09:07:22.181Z,3.78
2022-11-25T09:08:31.430Z,3.76
2022-11-25T09:09:36.044Z,3.75
2022-11-25T09:10:39.859Z,3.76
2022-11-25T09:11:43.768Z,3.76
2022-11-25T09:12:46.587Z,3.77
2022-11-25T09:13:50.328Z,3.81
2022-11-25T09:14:54.151Z,3.83
2022-11-25T09:15:57.633Z,3.88
2022-11-25T09:17:02.254Z,3.94
2022-11-25T09:18:08.408Z,4.00
2022-11-25T09:19:12.200Z,4.08
2022-11-25T09:20:15.908Z,4.14
2022-11-25T09:21:19.980Z,4.19
2022-11-25T09:22:22.892Z,4.25
2022-11-25T09:23:26.808Z,4.29
2022-11-25T09:24:32.009Z,4.35
2022-11-25T09:25:36.337Z,4.40
2022-11-25T09:26:41.299Z,4.42
2022-11-25T09:27:44.229Z,4.47
2022-11-25T09:28:48.012Z,4.50
2022-11-25T09:29:51.897Z,4.53
2022-11-25T09:30:54.926Z,4.55
2022-11-25T09:31:58.910Z,4.58
2022-11-25T09:33:02.784Z,4.58
2022-11-25T09:34:08.261Z,4.58
2022-11-25T09:35:11.234Z,4.61
2022-11-25T09:36:16.548Z,4.66
2022-11-25T09:37:19.298Z,4.65
2022-11-25T09:38:23.448Z,4.67
2022-11-25T09:39:30.142Z,4.69
2022-11-25T09:40:41.210Z,4.73
2022-11-25T09:42:13.545Z,4.76
2022-11-25T09:43:43.039Z,4.80
2022-11-25T09:45:14.559Z,4.82
2022-11-25T09:46:46.319Z,4.82
2022-11-25T09:47:58.068Z,4.82
2022-11-25T09:49:08.993Z,4.84
2022-11-25T09:50:19.110Z,4.86
2022-11-25T09:51:24.569Z,4.88
2022-11-25T09:52:55.130Z,4.94
2022-11-25T09:54:05.024Z,4.97
2022-11-25T09:55:10.630Z,5.04
2022-11-25T09:56:26.770Z,5.11
2022-11-25T09:57:40.819Z,5.16
2022-11-25T09:58:49.879Z,5.20
2022-11-25T10:00:03.725Z,5.25
2022-11-25T10:01:20.314Z,5.31
2022-11-25T10:02:27.046Z,5.35
2022-11-25T10:03:35.931Z,5.39
2022-11-25T10:04:43.846Z,5.44
2022-11-25T10:05:52.849Z,5.51
2022-11-25T10:07:01.373Z,5.59
2022-11-25T10:08:10.169Z,5.69
2022-11-25T10:09:16.259Z,5.79
2022-11-25T10:10:23.648Z,5.84
2022-11-25T10:11:36.158Z,5.88
2022-11-25T10:12:43.819Z,5.92
2022-11-25T10:13:53.360Z,5.94
2022-11-25T10:15:02.202Z,5.95
2022-11-25T10:16:07.968Z,5.97
2022-11-25T10:17:16.890Z,5.97
2022-11-25T10:18:27.037Z,5.97
2022-11-25T10:19:40.271Z,5.95
2022-11-25T10:20:44.435Z,5.96
2022-11-25T10:21:47.417Z,5.97
2022-11-25T10:22:53.389Z,6.01
2022-11-25T10:23:56.149Z,6.04
2022-11-25T10:25:01.798Z,6.08
2022-11-25T10:26:13.139Z,6.12
2022-11-25T10:27:22.121Z,6.17
2022-11-25T10:28:27.557Z,6.23
2022-11-25T10:29:31.731Z,6.30
2022-11-25T10:30:37.921Z,6.37
2022-11-25T10:31:42.927Z,6.44
2022-11-25T10:32:51.064Z,6.51
2022-11-25T10:33:57.489Z,6.61
2022-11-25T10:35:04.757Z,6.70
2022-11-25T10:36:12.462Z,6.75
2022-11-25T10:37:27.538Z,6.78
2022-11-25T10:38:38.189Z,6.81
2022-11-25T10:39:40.958Z,6.80
2022-11-25T10:40:45.880Z,6.80
2022-11-25T10:41:54.543Z,6.78
2022-11-25T10:43:00.001Z,6.74
2022-11-25T10:44:02.767Z,6.71
2022-11-25T10:45:09.261Z,6.70
2022-11-25T10:46:18.325Z,6.67
2022-11-25T10:47:30.478Z,6.61
2022-11-25T10:48:47.956Z,6.55
2022-11-25T10:50:09.300Z,6.44
2022-11-25T10:51:25.472Z,6.35
2022-11-25T10:52:31.445Z,6.25
2022-11-25T10:53:35.388Z,6.21
2022-11-25T10:54:39.367Z,6.19
2022-11-25T10:55:59.219Z,6.17
2022-11-25T10:57:04.436Z,6.14
2022-11-25T10:58:27.313Z,6.12
2022-11-25T10:59:33.182Z,6.10
2022-11-25T11:00:38.798Z,6.09
2022-11-25T11:01:41.538Z,6.11
2022-11-25T11:02:49.031Z,6.09
2022-11-25T11:03:54.606Z,6.09
2022-11-25T11:05:01.301Z,6.07
2022-11-25T11:06:05.208Z,6.09
2022-11-25T11:07:09.501Z,6.10
2022-11-25T11:08:21.048Z,6.13
2022-11-25T11:09:37.960Z,6.16
2022-11-25T11:10:41.859Z,6.18
2022-11-25T11:11:49.377Z,6.19
2022-11-25T11:12:56.951Z,6.20
2022-11-25T11:14:21.332Z,6.23
2022-11-25T11:15:25.718Z,6.24
2022-11-25T11:16:32.138Z,6.30
2022-11-25T11:17:37.523Z,6.37
2022-11-25T11:18:42.868Z,6.39
2022-11-25T11:20:01.456Z,6.44
2022-11-25T11:21:07.522Z,6.49
2022-11-25T11:22:18.817Z,6.55
2022-11-25T11:23:22.979Z,6.58
2022-11-25T11:24:32.364Z,6.61
2022-11-25T11:25:36.445Z,6.67
2022-11-25T11:26:40.177Z,6.69
2022-11-25T11:27:42.848Z,6.75
2022-11-25T11:28:46.526Z,6.78
2022-11-25T11:30:10.040Z,6.84
2022-11-25T11:31:19.747Z,6.89
2022-11-25T11:32:25.569Z,6.95
2022-11-25T11:33:37.924Z,7.01
2022-11-25T11:34:55.068Z,7.09
2022-11-25T11:36:09.381Z,7.14
2022-11-25T11:37:24.560Z,7.19
2022-11-25T11:38:34.900Z,7.21
2022-11-25T11:39:55.149Z,7.23
2022-11-25T11:41:06.677Z,7.25
2022-11-25T11:42:15.630Z,7.25
2022-11-25T11:43:29.680Z,7.25
2022-11-25T11:44:39.709Z,7.25
2022-11-25T11:45:55.939Z,7.22
2022-11-25T11:47:18.019Z,7.18
2022-11-25T11:48:26.507Z,7.12
2022-11-25T11:49:54.783Z,7.08
2022-11-25T11:51:04.848Z,7.01
2022-11-25T11:52:12.246Z,6.99
2022-11-25T11:53:23.677Z,6.96
2022-11-25T11:54:32.603Z,6.95
2022-11-25T11:55:44.427Z,6.94
2022-11-25T11:56:55.207Z,6.92
2022-11-25T11:58:04.720Z,6.90
2022-11-25T11:59:22.259Z,6.89
2022-11-25T12:00:27.329Z,6.87
2022-11-25T12:01:41.953Z,6.84
2022-11-25T12:02:55.805Z,6.77
2022-11-25T12:04:02.449Z,6.73
2022-11-25T12:05:15.277Z,6.66
2022-11-25T12:06:18.979Z,6.61
2022-11-25T12:07:25.894Z,6.56
2022-11-25T12:08:33.523Z,6.49
2022-11-25T12:09:40.716Z,6.45
2022-11-25T12:10:47.389Z,6.38
2022-11-25T12:11:54.150Z,6.34
2022-11-25T12:13:04.868Z,6.29
2022-11-25T12:14:11.052Z,6.26
2022-11-25T12:15:20.790Z,6.24
2022-11-25T12:16:29.102Z,6.23
2022-11-25T12:17:39.350Z,6.24
2022-11-25T12:18:46.727Z,6.26
2022-11-25T12:19:55.199Z,6.30
2022-11-25T12:21:02.484Z,6.31
2022-11-25T12:22:09.961Z,6.32
2022-11-25T12:23:18.770Z,6.32
2022-11-25T12:24:26.599Z,6.28
2022-11-25T12:25:33.179Z,6.26
2022-11-25T12:26:41.196Z,6.23
2022-11-25T12:27:47.189Z,6.22
2022-11-25T12:28:55.172Z,6.21
2022-11-25T12:30:02.828Z,6.22
2022-11-25T12:31:14.587Z,6.23
2022-11-25T12:32:45.877Z,6.26
2022-11-25T12:33:57.387Z,6.28
2022-11-25T12:35:04.910Z,6.30
2022-11-25T12:36:12.220Z,6.35
2022-11-25T12:37:22.947Z,6.37
2022-11-25T12:38:35.139Z,6.43
2022-11-25T12:39:42.509Z,6.44
2022-11-25T12:40:48.408Z,6.45
2022-11-25T12:41:55.039Z,6.45
2022-11-25T12:43:06.991Z,6.44
2022-11-25T12:44:16.640Z,6.41
2022-11-25T12:45:22.733Z,6.39
2022-11-25T12:46:32.603Z,6.38
2022-11-25T12:47:35.437Z,6.36
2022-11-25T12:48:42.841Z,6.31
2022-11-25T12:49:48.722Z,6.29
2022-11-25T12:50:59.157Z,6.26
2022-11-25T12:52:27.358Z,6.24
2022-11-25T12:53:35.400Z,6.23
2022-11-25T12:55:03.604Z,6.24
2022-11-25T12:56:13.088Z,6.23
2022-11-25T12:57:52.709Z,6.22
2022-11-25T12:59:12.174Z,6.21
2022-11-25T13:01:58.891Z,6.25
2022-11-25T13:03:31.497Z,6.27
2022-11-25T13:04:58.056Z,6.28
2022-11-25T13:06:39.988Z,6.25
2022-11-25T13:07:46.917Z,6.21
2022-11-25T13:08:56.462Z,6.20
2022-11-25T13:10:27.317Z,6.17
2022-11-25T13:11:50.117Z,6.13
2022-11-25T13:13:06.135Z,6.11
2022-11-25T13:14:18.589Z,6.09
2022-11-25T13:15:27.777Z,6.08
2022-11-25T13:16:33.102Z,6.08
2022-11-25T13:17:40.052Z,6.08
2022-11-25T13:18:45.265Z,6.06
2022-11-25T13:19:49.342Z,6.05
2022-11-25T13:20:53.941Z,6.05
2022-11-25T13:21:58.408Z,6.02
2022-11-25T13:23:10.484Z,6.01
2022-11-25T13:24:29.257Z,5.96
2022-11-25T13:25:32.473Z,5.95
2022-11-25T13:26:52.843Z,5.93
2022-11-25T13:28:00.856Z,5.91
2022-11-25T13:29:07.509Z,5.90
2022-11-25T13:30:38.129Z,5.89
2022-11-25T13:31:59.366Z,5.86
2022-11-25T13:33:46.354Z,5.85
2022-11-25T13:34:51.446Z,5.84
2022-11-25T13:35:55.990Z,5.85
2022-11-25T13:37:00.019Z,5.86
2022-11-25T13:38:26.520Z,5.85
2022-11-25T13:39:32.556Z,5.83
2022-11-25T13:40:38.665Z,5.82
2022-11-25T13:41:46.120Z,5.83
2022-11-25T13:42:50.441Z,5.82
2022-11-25T13:44:01.713Z,5.82
2022-11-25T13:45:06.931Z,5.82
2022-11-25T13:46:09.649Z,5.81
2022-11-25T13:47:40.552Z,5.80
2022-11-25T13:48:44.737Z,5.78
2022-11-25T13:49:54.486Z,5.77
2022-11-25T13:51:16.899Z,5.75
2022-11-25T13:52:34.439Z,5.73
2022-11-25T13:53:38.890Z,5.72
2022-11-25T13:54:45.805Z,5.70
2022-11-25T13:55:51.259Z,5.68
2022-11-25T13:57:25.236Z,5.68
2022-11-25T13:58:36.063Z,5.65
2022-11-25T13:59:49.754Z,5.63
2022-11-25T14:01:26.327Z,5.61
2022-11-25T14:02:42.138Z,5.56
2022-11-25T14:03:47.615Z,5.54
2022-11-25T14:04:57.378Z,5.51
2022-11-25T14:06:05.358Z,5.52
2022-11-25T14:07:20.184Z,5.49
2022-11-25T14:08:36.459Z,5.47
2022-11-25T14:09:51.621Z,5.45
2022-11-25T14:11:04.922Z,5.44
2022-11-25T14:12:23.236Z,5.43
2022-11-25T14:13:59.781Z,5.41
2022-11-25T14:15:31.537Z,5.36
2022-11-25T14:16:46.201Z,5.34
2022-11-25T14:18:17.869Z,5.33
2022-11-25T14:19:51.548Z,5.31
2022-11-25T14:21:00.998Z,5.27
2022-11-25T14:22:12.519Z,5.25
2022-11-25T14:23:48.026Z,5.21
2022-11-25T14:24:51.795Z,5.17
2022-11-25T14:25:57.001Z,5.17
2022-11-25T14:27:00.731Z,5.15
2022-11-25T14:28:10.512Z,5.14
2022-11-25T14:29:17.129Z,5.12
2022-11-25T14:30:21.284Z,5.10
2022-11-25T14:31:30.708Z,5.06
2022-11-25T14:32:37.088Z,5.04
2022-11-25T14:33:48.229Z,5.02
2022-11-25T14:34:56.159Z,4.99
2022-11-25T14:36:04.680Z,4.94
2022-11-25T14:37:12.722Z,4.92
2022-11-25T14:38:19.391Z,4.90
2022-11-25T14:39:26.899Z,4.89
2022-11-25T14:40:34.742Z,4.89
2022-11-25T14:41:41.077Z,4.90
2022-11-25T14:42:47.596Z,4.89
2022-11-25T14:43:54.548Z,4.90
2022-11-25T14:44:58.659Z,4.90
2022-11-25T14:46:12.688Z,4.89
2022-11-25T14:47:16.981Z,4.88
2022-11-25T14:48:23.186Z,4.87
2022-11-25T14:49:48.853Z,4.85
2022-11-25T14:50:57.551Z,4.80
2022-11-25T14:52:02.840Z,4.78
2022-11-25T14:53:08.514Z,4.75
2022-11-25T14:54:12.382Z,4.76
2022-11-25T14:55:25.264Z,4.75
2022-11-25T14:56:31.306Z,4.76
2022-11-25T14:57:37.050Z,4.75
2022-11-25T14:58:41.558Z,4.75
2022-11-25T14:59:46.182Z,4.74
2022-11-25T15:00:54.548Z,4.72
2022-11-25T15:01:58.312Z,4.70